Time,TemperatureF,DewpointF,PressureIn,WindDirection,WindDirectionDegrees,WindSpeedMPH,WindSpeedGustMPH,Humidity,HourlyPrecipIn,Conditions,Clouds,dailyrainin,SolarRadiationWatts/m^2,SoftwareType,DateUTC
2013-05-06 00:00:00,65.6,32.5,29.81,WSW,249,6.0,6.0,29,0.00,,,0.00,0,Wunderground v.1.15,2013-05-06 07:00:00,
2013-05-06 00:10:00,65.4,32.3,29.81,SW,219,3.0,17.0,29,0.00,,,0.00,0,Wunderground v.1.15,2013-05-06 07:10:00,
2013-05-06 00:20:00,65.0,33.6,29.81,West,263,2.0,17.0,31,0.00,,,0.00,0,Wunderground v.1.15,2013-05-06 07:20:00,
2013-05-06 00:30:00,64.4,35.4,29.82,West,277,2.0,17.0,34,0.00,,,0.00,0,Wunderground v.1.15,2013-05-06 07:30:00,
2013-05-06 00:40:00,63.6,37.5,29.82,West,271,6.0,17.0,38,0.00,,,0.00,0,Wunderground v.1.15,2013-05-06 07:40:00,
2013-05-06 00:50:00,62.2,39.4,29.83,West,279,8.0,17.0,43,0.00,,,0.00,0,Wunderground v.1.15,2013-05-06 07:50:00,
2013-05-06 01:00:00,60.9,38.8,29.82,West,259,6.0,17.0,44,0.00,,,0.00,0,Wunderground v.1.15,2013-05-06 08:00:00,
2013-05-06 01:10:00,60.4,40.1,29.82,NW,314,4.0,17.0,47,0.00,,,0.00,0,Wunderground v.1.15,2013-05-06 08:10:00,
2013-05-06 01:20:00,59.8,40.1,29.81,NW,306,2.0,2.0,48,0.00,,,0.00,0,Wunderground v.1.15,2013-05-06 08:20:00,
2013-05-06 01:30:00,59.5,39.8,29.80,NW,306,0.0,17.0,48,0.00,,,0.00,0,Wunderground v.1.15,2013-05-06 08:30:00,
2013-05-06 01:40:00,59.3,39.6,29.80,NW,306,0.0,17.0,48,0.00,,,0.00,0,Wunderground v.1.15,2013-05-06 08:40:00,
2013-05-06 01:50:00,58.6,35.0,29.80,SSW,211,0.0,17.0,41,0.00,,,0.00,0,Wunderground v.1.15,2013-05-06 08:50:00,
2013-05-06 02:00:00,57.7,35.3,29.80,SSW,192,0.0,17.0,43,0.00,,,0.00,0,Wunderground v.1.15,2013-05-06 09:00:00,
2013-05-06 02:10:00,57.4,35.6,29.80,SSW,201,0.0,17.0,44,0.00,,,0.00,0,Wunderground v.1.15,2013-05-06 09:10:00,
2013-05-06 02:20:00,56.3,34.6,29.81,SW,214,0.0,17.0,44,0.00,,,0.00,0,Wunderground v.1.15,2013-05-06 09:20:00,
2013-05-06 02:30:00,55.9,34.8,29.80,SW,234,0.0,17.0,45,0.00,,,0.00,0,Wunderground v.1.15,2013-05-06 09:30:00,
2013-05-06 02:40:00,56.9,35.8,29.81,West,266,0.0,17.0,45,0.00,,,0.00,0,Wunderground v.1.15,2013-05-06 09:40:00,
2013-05-06 02:50:00,57.5,35.7,29.81,SW,234,0.0,17.0,44,0.00,,,0.00,0,Wunderground v.1.15,2013-05-06 09:50:00,
2013-05-06 03:00:00,58.4,36.0,29.81,SW,219,1.0,1.0,43,0.00,,,0.00,0,Wunderground v.1.15,2013-05-06 10:00:00,
2013-05-06 03:10:00,58.6,36.2,29.81,WSW,239,2.0,2.0,43,0.00,,,0.00,0,Wunderground v.1.15,2013-05-06 10:10:00,
2013-05-06 03:20:00,58.3,35.9,29.81,SW,236,2.0,17.0,43,0.00,,,0.00,0,Wunderground v.1.15,2013-05-06 10:20:00,
2013-05-06 03:30:00,57.9,35.5,29.81,SW,232,1.0,1.0,43,0.00,,,0.00,0,Wunderground v.1.15,2013-05-06 10:30:00,
2013-05-06 03:40:00,57.5,36.3,29.81,WSW,243,1.0,17.0,45,0.00,,,0.00,0,Wunderground v.1.15,2013-05-06 10:40:00,
2013-05-06 03:50:00,57.7,35.9,29.80,SW,222,3.0,17.0,44,0.00,,,0.00,0,Wunderground v.1.15,2013-05-06 10:50:00,
2013-05-06 04:00:00,57.7,35.9,29.80,SW,236,3.0,3.0,44,0.00,,,0.00,0,Wunderground v.1.15,2013-05-06 11:00:00,
2013-05-06 04:10:00,57.3,36.1,29.81,SSW,202,1.0,1.0,45,0.00,,,0.00,0,Wunderground v.1.15,2013-05-06 11:10:00,
2013-05-06 04:20:00,55.5,35.6,29.81,South,178,0.0,17.0,47,0.00,,,0.00,0,Wunderground v.1.15,2013-05-06 11:20:00,
2013-05-06 04:30:00,53.8,34.6,29.81,SSE,167,0.0,17.0,48,0.00,,,0.00,0,Wunderground v.1.15,2013-05-06 11:30:00,
2013-05-06 04:40:00,51.5,34.4,29.81,SSE,161,0.0,17.0,52,0.00,,,0.00,0,Wunderground v.1.15,2013-05-06 11:40:00,
2013-05-06 04:50:00,52.3,35.2,29.81,SSW,199,0.0,17.0,52,0.00,,,0.00,0,Wunderground v.1.15,2013-05-06 11:50:00,
2013-05-06 05:00:00,52.9,35.2,29.81,South,173,2.0,17.0,51,0.00,,,0.00,0,Wunderground v.1.15,2013-05-06 12:00:00,
2013-05-06 05:10:00,52.6,34.5,29.82,ESE,114,0.0,17.0,50,0.00,,,0.00,0,Wunderground v.1.15,2013-05-06 12:10:00,
2013-05-06 05:20:00,51.0,34.5,29.82,ESE,117,0.0,17.0,53,0.00,,,0.00,0,Wunderground v.1.15,2013-05-06 12:20:00,
2013-05-06 05:30:00,51.3,34.7,29.83,SE,142,2.0,2.0,53,0.00,,,0.00,0,Wunderground v.1.15,2013-05-06 12:30:00,
2013-05-06 05:40:00,51.5,34.9,29.83,ESE,107,1.0,1.0,53,0.00,,,0.00,9,Wunderground v.1.15,2013-05-06 12:40:00,
2013-05-06 05:50:00,52.1,35.0,29.83,SE,126,2.0,17.0,52,0.00,,,0.00,18,Wunderground v.1.15,2013-05-06 12:50:00,
2013-05-06 06:00:00,54.1,35.9,29.84,East,98,6.0,17.0,50,0.00,,,0.00,33,Wunderground v.1.15,2013-05-06 13:00:00,
2013-05-06 06:10:00,56.2,36.2,29.85,SSE,158,5.0,5.0,47,0.00,,,0.00,30,Wunderground v.1.15,2013-05-06 13:10:00,
2013-05-06 06:20:00,57.3,36.1,29.85,SE,133,1.0,1.0,45,0.00,,,0.00,23,Wunderground v.1.15,2013-05-06 13:20:00,
2013-05-06 06:30:00,56.8,35.7,29.85,South,178,1.0,1.0,45,0.00,,,0.00,26,Wunderground v.1.15,2013-05-06 13:30:00,
2013-05-06 06:40:00,56.9,35.8,29.86,SE,143,0.0,1.0,45,0.00,,,0.00,181,Wunderground v.1.15,2013-05-06 13:40:00,
2013-05-06 06:50:00,58.4,36.6,29.85,SSE,148,2.0,2.0,44,0.00,,,0.00,220,Wunderground v.1.15,2013-05-06 13:50:00,
2013-05-06 07:00:00,59.6,36.5,29.86,South,180,3.0,3.0,42,0.00,,,0.00,258,Wunderground v.1.15,2013-05-06 14:00:00,
2013-05-06 07:10:00,60.4,36.6,29.86,SSE,154,2.0,2.0,41,0.00,,,0.00,292,Wunderground v.1.15,2013-05-06 14:10:00,
2013-05-06 07:20:00,61.8,37.2,29.86,South,180,1.0,13.0,40,0.00,,,0.00,330,Wunderground v.1.15,2013-05-06 14:20:00,
2013-05-06 07:30:00,62.2,37.6,29.86,ESE,117,1.0,13.0,40,0.00,,,0.00,367,Wunderground v.1.15,2013-05-06 14:30:00,
2013-05-06 07:40:00,62.2,37.6,29.87,SSE,156,1.0,13.0,40,0.00,,,0.00,403,Wunderground v.1.15,2013-05-06 14:40:00,
2013-05-06 07:50:00,62.7,37.4,29.87,ESE,117,0.0,13.0,39,0.00,,,0.00,438,Wunderground v.1.15,2013-05-06 14:50:00,
2013-05-06 08:00:00,63.5,38.1,29.86,East,80,0.0,13.0,39,0.00,,,0.00,480,Wunderground v.1.15,2013-05-06 15:00:00,
2013-05-06 08:10:00,64.9,39.3,29.86,SW,218,1.0,4.0,39,0.00,,,0.00,517,Wunderground v.1.15,2013-05-06 15:10:00,
2013-05-06 08:20:00,66.2,39.8,29.87,South,175,5.0,12.0,38,0.00,,,0.00,547,Wunderground v.1.15,2013-05-06 15:20:00,
2013-05-06 08:30:00,66.4,40.0,29.87,South,190,6.0,6.0,38,0.00,,,0.00,580,Wunderground v.1.15,2013-05-06 15:30:00,
2013-05-06 08:40:00,66.8,40.4,29.87,SSW,212,6.0,6.0,38,0.00,,,0.00,615,Wunderground v.1.15,2013-05-06 15:40:00,
2013-05-06 08:50:00,66.8,39.7,29.87,South,180,7.0,13.0,37,0.00,,,0.00,645,Wunderground v.1.15,2013-05-06 15:50:00,
2013-05-06 09:00:00,67.3,39.4,29.87,South,184,8.0,8.0,36,0.00,,,0.00,677,Wunderground v.1.15,2013-05-06 16:00:00,
2013-05-06 09:10:00,67.9,39.2,29.88,SSW,211,7.0,7.0,35,0.00,,,0.00,707,Wunderground v.1.15,2013-05-06 16:10:00,
2013-05-06 09:20:00,68.5,39.0,29.88,SW,234,5.0,10.0,34,0.00,,,0.00,738,Wunderground v.1.15,2013-05-06 16:20:00,
2013-05-06 09:30:00,68.9,38.6,29.88,South,187,7.0,7.0,33,0.00,,,0.00,765,Wunderground v.1.15,2013-05-06 16:30:00,
2013-05-06 09:40:00,69.5,38.3,29.88,SSW,209,7.0,7.0,32,0.00,,,0.00,795,Wunderground v.1.15,2013-05-06 16:40:00,
2013-05-06 09:50:00,69.9,37.9,29.88,SSW,207,7.0,7.0,31,0.00,,,0.00,830,Wunderground v.1.15,2013-05-06 16:50:00,
2013-05-06 10:00:00,70.7,38.6,29.88,SSW,196,5.0,16.0,31,0.00,,,0.00,846,Wunderground v.1.15,2013-05-06 17:00:00,
2013-05-06 10:10:00,70.9,37.9,29.88,SSW,213,6.0,6.0,30,0.00,,,0.00,861,Wunderground v.1.15,2013-05-06 17:10:00,
2013-05-06 10:20:00,71.2,38.2,29.88,SSW,211,6.0,6.0,30,0.00,,,0.00,888,Wunderground v.1.15,2013-05-06 17:20:00,
2013-05-06 10:30:00,71.6,36.8,29.88,SW,223,7.0,7.0,28,0.00,,,0.00,905,Wunderground v.1.15,2013-05-06 17:30:00,
2013-05-06 10:40:00,72.4,37.4,29.87,SSW,213,6.0,7.0,28,0.00,,,0.00,919,Wunderground v.1.15,2013-05-06 17:40:00,
2013-05-06 10:50:00,73.0,37.0,29.86,SSW,194,6.0,10.0,27,0.00,,,0.00,935,Wunderground v.1.15,2013-05-06 17:50:00,
2013-05-06 11:00:00,73.5,37.5,29.87,WSW,237,9.0,9.0,27,0.00,,,0.00,954,Wunderground v.1.15,2013-05-06 18:00:00,
2013-05-06 11:10:00,74.3,36.2,29.87,SSW,201,5.0,11.0,25,0.00,,,0.00,970,Wunderground v.1.15,2013-05-06 18:10:00,
2013-05-06 11:20:00,74.2,35.1,29.87,WSW,242,8.0,10.0,24,0.00,,,0.00,979,Wunderground v.1.15,2013-05-06 18:20:00,
2013-05-06 11:30:00,74.4,36.3,29.86,South,171,8.0,8.0,25,0.00,,,0.00,984,Wunderground v.1.15,2013-05-06 18:30:00,
2013-05-06 11:40:00,74.4,35.2,29.86,SSW,209,9.0,18.0,24,0.00,,,0.00,993,Wunderground v.1.15,2013-05-06 18:40:00,
2013-05-06 11:50:00,74.8,35.6,29.86,SW,216,10.0,10.0,24,0.00,,,0.00,1004,Wunderground v.1.15,2013-05-06 18:50:00,
2013-05-06 12:00:00,75.3,33.8,29.86,WSW,244,8.0,9.0,22,0.00,,,0.00,1007,Wunderground v.1.15,2013-05-06 19:00:00,
2013-05-06 12:10:00,76.6,32.5,29.85,West,259,5.0,5.0,20,0.00,,,0.00,1009,Wunderground v.1.15,2013-05-06 19:10:00,
2013-05-06 12:20:00,76.9,34.0,29.85,SW,219,8.0,8.0,21,0.00,,,0.00,1007,Wunderground v.1.15,2013-05-06 19:20:00,
2013-05-06 12:30:00,76.5,32.4,29.84,SSE,155,9.0,20.0,20,0.00,,,0.00,1005,Wunderground v.1.15,2013-05-06 19:30:00,
2013-05-06 12:40:00,76.6,31.2,29.84,SSW,209,10.0,20.0,19,0.00,,,0.00,1002,Wunderground v.1.15,2013-05-06 19:40:00,
2013-05-06 12:50:00,77.3,30.5,29.84,SW,226,11.0,11.0,18,0.00,,,0.00,1000,Wunderground v.1.15,2013-05-06 19:50:00,
2013-05-06 13:00:00,77.1,32.9,29.84,SSW,205,10.0,20.0,20,0.00,,,0.00,993,Wunderground v.1.15,2013-05-06 20:00:00,
2013-05-06 13:10:00,77.9,31.0,29.83,SSW,213,8.0,8.0,18,0.00,,,0.00,986,Wunderground v.1.15,2013-05-06 20:10:00,
2013-05-06 13:20:00,78.1,29.7,29.84,SSE,168,7.0,7.0,17,0.00,,,0.00,981,Wunderground v.1.15,2013-05-06 20:20:00,
2013-05-06 13:30:00,78.1,32.5,29.83,SSE,152,8.0,20.0,19,0.00,,,0.00,974,Wunderground v.1.15,2013-05-06 20:30:00,
2013-05-06 13:40:00,78.2,32.5,29.83,SW,223,7.0,20.0,19,0.00,,,0.00,954,Wunderground v.1.15,2013-05-06 20:40:00,
2013-05-06 13:50:00,78.6,32.9,29.82,South,178,5.0,20.0,19,0.00,,,0.00,951,Wunderground v.1.15,2013-05-06 20:50:00,
2013-05-06 14:00:00,79.1,33.3,29.82,WSW,253,8.0,8.0,19,0.00,,,0.00,925,Wunderground v.1.15,2013-05-06 21:00:00,
2013-05-06 14:10:00,79.0,33.2,29.82,SW,231,7.0,7.0,19,0.00,,,0.00,909,Wunderground v.1.15,2013-05-06 21:10:00,
2013-05-06 14:20:00,78.5,32.8,29.82,SSW,205,10.0,10.0,19,0.00,,,0.00,891,Wunderground v.1.15,2013-05-06 21:20:00,
2013-05-06 14:30:00,79.3,32.1,29.81,SW,215,8.0,23.0,18,0.00,,,0.00,868,Wunderground v.1.15,2013-05-06 21:30:00,
2013-05-06 14:40:00,79.6,32.3,29.81,SSW,209,8.0,20.0,18,0.00,,,0.00,900,Wunderground v.1.15,2013-05-06 21:40:00,
2013-05-06 14:50:00,79.6,30.9,29.80,South,175,8.0,20.0,17,0.00,,,0.00,833,Wunderground v.1.15,2013-05-06 21:50:00,
2013-05-06 15:00:00,79.1,31.9,29.80,South,189,8.0,8.0,18,0.00,,,0.00,802,Wunderground v.1.15,2013-05-06 22:00:00,
2013-05-06 15:10:00,79.0,30.4,29.80,SSW,211,8.0,11.0,17,0.00,,,0.00,772,Wunderground v.1.15,2013-05-06 22:10:00,
2013-05-06 15:20:00,79.2,29.1,29.80,South,187,8.0,8.0,16,0.00,,,0.00,745,Wunderground v.1.15,2013-05-06 22:20:00,
2013-05-06 15:30:00,78.9,31.8,29.80,SW,219,7.0,7.0,18,0.00,,,0.00,721,Wunderground v.1.15,2013-05-06 22:30:00,
2013-05-06 15:40:00,78.8,31.7,29.79,SW,223,7.0,13.0,18,0.00,,,0.00,677,Wunderground v.1.15,2013-05-06 22:40:00,
2013-05-06 15:50:00,78.8,31.7,29.80,SSW,201,6.0,6.0,18,0.00,,,0.00,652,Wunderground v.1.15,2013-05-06 22:50:00,
2013-05-06 16:00:00,78.3,32.6,29.79,SSW,200,10.0,10.0,19,0.00,,,0.00,615,Wunderground v.1.15,2013-05-06 23:00:00,
2013-05-06 16:10:00,78.3,32.6,29.79,WSW,242,6.0,21.0,19,0.00,,,0.00,591,Wunderground v.1.15,2013-05-06 23:10:00,
2013-05-06 16:20:00,78.1,31.1,29.80,SSW,208,9.0,9.0,18,0.00,,,0.00,550,Wunderground v.1.15,2013-05-06 23:20:00,
2013-05-06 16:30:00,77.9,33.6,29.80,SW,235,7.0,21.0,20,0.00,,,0.00,513,Wunderground v.1.15,2013-05-06 23:30:00,
2013-05-06 16:40:00,77.7,33.4,29.80,SW,236,7.0,21.0,20,0.00,,,0.00,483,Wunderground v.1.15,2013-05-06 23:40:00,
2013-05-06 16:50:00,77.3,34.3,29.80,SSW,209,8.0,21.0,21,0.00,,,0.00,445,Wunderground v.1.15,2013-05-06 23:50:00,
2013-05-06 17:00:00,76.8,33.9,29.80,SSW,213,8.0,8.0,21,0.00,,,0.00,374,Wunderground v.1.15,2013-05-07 00:00:00,
2013-05-06 17:10:00,76.3,33.5,29.80,SW,234,7.0,16.0,21,0.00,,,0.00,276,Wunderground v.1.15,2013-05-07 00:10:00,
2013-05-06 17:20:00,75.8,34.2,29.80,WSW,246,10.0,10.0,22,0.00,,,0.00,341,Wunderground v.1.15,2013-05-07 00:20:00,
2013-05-06 17:30:00,75.5,34.0,29.80,SW,217,7.0,7.0,22,0.00,,,0.00,294,Wunderground v.1.15,2013-05-07 00:30:00,
2013-05-06 17:40:00,75.1,33.6,29.80,WSW,243,7.0,7.0,22,0.00,,,0.00,272,Wunderground v.1.15,2013-05-07 00:40:00,
2013-05-06 17:50:00,74.9,34.6,29.80,SW,232,6.0,6.0,23,0.00,,,0.00,225,Wunderground v.1.15,2013-05-07 00:50:00,
2013-05-06 18:00:00,74.2,34.0,29.81,WSW,246,7.0,7.0,23,0.00,,,0.00,192,Wunderground v.1.15,2013-05-07 01:00:00,
2013-05-06 18:10:00,74.0,34.9,29.81,SW,220,4.0,20.0,24,0.00,,,0.00,125,Wunderground v.1.15,2013-05-07 01:10:00,
2013-05-06 18:20:00,73.4,34.4,29.82,SSW,209,5.0,20.0,24,0.00,,,0.00,88,Wunderground v.1.15,2013-05-07 01:20:00,
2013-05-06 18:30:00,72.5,33.6,29.82,WSW,245,6.0,6.0,24,0.00,,,0.00,65,Wunderground v.1.15,2013-05-07 01:30:00,
2013-05-06 18:40:00,71.7,34.0,29.82,SW,233,5.0,20.0,25,0.00,,,0.00,30,Wunderground v.1.15,2013-05-07 01:40:00,
2013-05-06 18:50:00,71.0,33.4,29.82,SSW,205,4.0,4.0,25,0.00,,,0.00,23,Wunderground v.1.15,2013-05-07 01:50:00,
2013-05-06 19:00:00,70.4,32.9,29.82,SW,228,4.0,4.0,25,0.00,,,0.00,11,Wunderground v.1.15,2013-05-07 02:00:00,
2013-05-06 19:10:00,69.7,32.3,29.83,WSW,248,1.0,1.0,25,0.00,,,0.00,5,Wunderground v.1.15,2013-05-07 02:10:00,
2013-05-06 19:20:00,68.9,31.6,29.83,SW,229,0.0,0.0,25,0.00,,,0.00,0,Wunderground v.1.15,2013-05-07 02:20:00,
2013-05-06 19:30:00,67.4,32.2,29.83,WSW,250,0.0,0.0,27,0.00,,,0.00,0,Wunderground v.1.15,2013-05-07 02:30:00,
2013-05-06 19:40:00,67.2,32.1,29.83,WSW,250,0.0,0.0,27,0.00,,,0.00,0,Wunderground v.1.15,2013-05-07 02:40:00,
2013-05-06 19:50:00,66.7,31.6,29.83,West,265,0.0,0.0,27,0.00,,,0.00,0,Wunderground v.1.15,2013-05-07 02:50:00,
2013-05-06 20:00:00,66.7,31.6,29.84,SW,229,0.0,0.0,27,0.00,,,0.00,0,Wunderground v.1.15,2013-05-07 03:00:00,
2013-05-06 20:10:00,66.7,31.6,29.84,West,259,0.0,15.0,27,0.00,,,0.00,0,Wunderground v.1.15,2013-05-07 03:10:00,